Time;durP1;ratioP1;P1;durP2;ratioP2;P2;SDS_P1;SDS_P2;PMS_P1;PMS_P2;Temp;Humidity;BMP_temperature;BMP_pressure;BME280_temperature;BME280_humidity;BME280_pressure;Samples;Min_cycle;Max_cycle;Signal;HPM_P1;HPM_P2
2021/09/23 00:02:37;;;;;;;11.67;6.80;;;11.30;95.10;;;;;;5031611;28;20439;-75
2021/09/23 00:05:03;;;;;;;16.27;7.50;;;11.30;95.10;;;;;;5025540;28;20471;-75
2021/09/23 00:07:29;;;;;;;13.00;7.40;;;11.30;95.10;;;;;;5031363;28;20444;-76
2021/09/23 00:09:55;;;;;;;12.30;7.30;;;11.30;95.20;;;;;;5024634;28;20428;-75
2021/09/23 00:12:21;;;;;;;12.37;8.00;;;11.30;94.60;;;;;;5030302;28;20522;-75
2021/09/23 00:14:46;;;;;;;11.80;7.00;;;11.30;94.00;;;;;;5030870;28;20215;-75
2021/09/23 00:17:12;;;;;;;11.70;7.17;;;11.20;94.20;;;;;;5030814;28;20213;-76
2021/09/23 00:19:39;;;;;;;10.93;7.37;;;11.20;94.20;;;;;;5031591;28;20200;-75
2021/09/23 00:22:04;;;;;;;10.60;7.13;;;11.10;94.40;;;;;;5031524;28;20196;-76
2021/09/23 00:24:30;;;;;;;11.77;7.07;;;11.10;94.40;;;;;;5030956;28;20463;-75
2021/09/23 00:26:56;;;;;;;12.80;7.10;;;11.00;94.50;;;;;;5031066;28;20209;-77
2021/09/23 00:29:21;;;;;;;10.10;6.50;;;11.00;94.60;;;;;;5030077;28;20242;-75
2021/09/23 00:31:47;;;;;;;11.30;7.03;;;11.00;94.80;;;;;;5031266;28;20290;-75
2021/09/23 00:34:13;;;;;;;11.93;6.07;;;11.00;94.90;;;;;;5029342;28;20645;-75
2021/09/23 00:36:39;;;;;;;7.47;4.97;;;10.90;95.00;;;;;;5031023;28;20649;-76
2021/09/23 00:39:04;;;;;;;11.70;6.50;;;10.90;95.20;;;;;;5031451;28;20197;-75
2021/09/23 00:41:30;;;;;;;9.53;5.83;;;11.00;95.20;;;;;;5031356;28;20255;-76
2021/09/23 00:43:56;;;;;;;12.10;6.90;;;11.00;95.00;;;;;;5030914;28;20229;-76
2021/09/23 00:46:21;;;;;;;12.50;7.00;;;11.00;94.70;;;;;;5029453;28;20632;-75
2021/09/23 00:48:50;;;;;;;10.23;6.70;;;10.90;94.80;;;;;;5031456;28;20221;-76
2021/09/23 00:51:18;;;;;;;13.90;7.30;;;10.80;94.80;;;;;;5031935;28;20181;-76
2021/09/23 00:53:45;;;;;;;13.13;7.20;;;10.80;95.10;;;;;;5030872;28;20432;-75
2021/09/23 00:56:10;;;;;;;12.37;7.20;;;10.80;95.20;;;;;;5031228;28;20450;-75
2021/09/23 00:58:37;;;;;;;12.10;6.80;;;10.80;95.30;;;;;;5031829;28;20432;-77
2021/09/23 01:01:02;;;;;;;12.27;6.53;;;10.80;95.40;;;;;;5028340;28;20189;-78
2021/09/23 01:03:28;;;;;;;9.90;6.13;;;10.80;95.50;;;;;;5032074;28;20478;-78
2021/09/23 01:05:55;;;;;;;8.70;5.50;;;10.90;95.50;;;;;;5033100;28;20219;-75
2021/09/23 01:08:21;;;;;;;12.80;5.77;;;10.90;95.60;;;;;;5032064;28;20197;-75
2021/09/23 01:10:47;;;;;;;12.63;7.47;;;10.90;95.60;;;;;;5024664;28;20563;-77
2021/09/23 01:13:13;;;;;;;10.00;6.27;;;11.00;95.50;;;;;;5031698;28;20487;-76
2021/09/23 01:15:38;;;;;;;12.33;6.33;;;11.00;95.40;;;;;;5032944;28;20193;-78
2021/09/23 01:18:05;;;;;;;11.83;5.57;;;11.00;95.40;;;;;;5039752;28;20448;-75
2021/09/23 01:20:30;;;;;;;11.27;6.60;;;11.00;95.30;;;;;;5041003;28;20186;-77
2021/09/23 01:22:56;;;;;;;12.20;7.10;;;11.00;95.20;;;;;;5031076;28;20531;-77
2021/09/23 01:25:23;;;;;;;13.70;7.20;;;11.00;95.20;;;;;;5031823;28;20783;-77
2021/09/23 01:27:49;;;;;;;11.13;7.03;;;11.00;95.10;;;;;;5030925;28;20220;-78
2021/09/23 01:30:15;;;;;;;14.33;7.33;;;10.90;94.90;;;;;;5031078;28;20510;-76
2021/09/23 01:32:41;;;;;;;10.90;6.03;;;10.90;94.70;;;;;;5029671;28;20415;-77
2021/09/23 01:35:09;;;;;;;9.60;6.07;;;10.80;94.80;;;;;;5030662;28;20427;-76
2021/09/23 01:37:35;;;;;;;10.67;6.00;;;10.90;94.90;;;;;;5032314;28;20451;-77
2021/09/23 01:40:02;;;;;;;11.30;5.77;;;10.80;94.80;;;;;;5032419;28;20420;-77
2021/09/23 01:42:28;;;;;;;12.10;5.97;;;10.90;94.80;;;;;;5032786;28;20427;-78
2021/09/23 01:44:54;;;;;;;13.77;7.23;;;10.90;94.90;;;;;;5033809;28;20456;-78
2021/09/23 01:47:20;;;;;;;10.43;6.70;;;10.80;94.90;;;;;;5034359;28;20204;-76
2021/09/23 01:49:46;;;;;;;14.07;7.00;;;10.80;95.00;;;;;;5033319;28;20890;-77
2021/09/23 01:52:11;;;;;;;10.20;6.57;;;10.80;95.10;;;;;;5031847;28;20181;-75
2021/09/23 01:54:37;;;;;;;12.43;7.27;;;10.80;95.10;;;;;;5031304;28;20875;-77
2021/09/23 01:57:03;;;;;;;11.87;6.43;;;10.80;95.20;;;;;;5032541;28;20235;-77
2021/09/23 01:59:28;;;;;;;12.67;6.83;;;10.70;95.20;;;;;;5030332;28;20208;-76
2021/09/23 02:01:54;;;;;;;13.47;7.00;;;10.70;95.20;;;;;;5031531;28;20648;-76
2021/09/23 02:04:20;;;;;;;15.30;7.53;;;10.70;95.30;;;;;;5034568;28;20204;-76
2021/09/23 02:06:46;;;;;;;9.03;6.10;;;10.70;95.30;;;;;;5032956;28;20496;-76
2021/09/23 02:09:12;;;;;;;14.20;6.70;;;10.80;95.30;;;;;;5043195;28;20189;-76
2021/09/23 02:11:38;;;;;;;12.50;6.57;;;10.70;95.20;;;;;;5044040;28;20177;-75
2021/09/23 02:14:04;;;;;;;12.40;6.17;;;10.70;95.30;;;;;;5041512;28;20490;-74
2021/09/23 02:16:30;;;;;;;13.73;6.50;;;10.60;95.30;;;;;;5042054;28;20448;-74
2021/09/23 02:18:56;;;;;;;14.07;5.83;;;10.60;95.50;;;;;;5049158;28;20438;-73
2021/09/23 02:21:22;;;;;;;10.77;5.90;;;10.60;95.50;;;;;;5045157;28;20191;-73
2021/09/23 02:23:49;;;;;;;10.83;6.13;;;10.60;95.50;;;;;;5057515;28;20212;-73
2021/09/23 02:26:14;;;;;;;9.67;5.70;;;10.60;95.60;;;;;;5051362;28;20245;-75
2021/09/23 02:28:40;;;;;;;9.00;5.77;;;10.60;95.60;;;;;;5054463;28;20436;-74
2021/09/23 02:31:06;;;;;;;10.70;7.23;;;10.50;95.60;;;;;;5032962;28;20575;-75
2021/09/23 02:33:33;;;;;;;11.60;6.70;;;10.50;95.80;;;;;;5028966;28;20195;-76
2021/09/23 02:36:00;;;;;;;16.80;7.73;;;10.50;95.80;;;;;;5033290;28;20211;-75
2021/09/23 02:38:25;;;;;;;14.07;8.10;;;10.40;95.70;;;;;;5037039;28;20443;-75
2021/09/23 02:40:51;;;;;;;12.63;7.20;;;10.40;95.30;;;;;;5049850;28;20423;-75
2021/09/23 02:43:17;;;;;;;14.30;7.37;;;10.30;95.00;;;;;;5049301;28;21020;-76
2021/09/23 02:45:43;;;;;;;13.97;8.50;;;10.10;95.50;;;;;;5049116;28;20769;-76
2021/09/23 02:48:09;;;;;;;16.43;7.17;;;10.10;95.80;;;;;;5044828;28;20471;-75
2021/09/23 02:50:35;;;;;;;15.60;8.53;;;10.00;95.90;;;;;;5034483;28;20263;-75
2021/09/23 02:53:01;;;;;;;12.30;7.43;;;9.90;95.90;;;;;;5035010;28;21278;-76
2021/09/23 02:55:27;;;;;;;16.23;7.93;;;9.90;96.40;;;;;;5034035;28;20563;-76
2021/09/23 02:57:52;;;;;;;10.17;7.50;;;10.00;96.40;;;;;;5030938;28;20216;-76
2021/09/23 03:00:19;;;;;;;12.57;7.27;;;9.90;96.40;;;;;;5028242;28;20440;-75
2021/09/23 03:02:45;;;;;;;13.43;7.60;;;9.90;96.70;;;;;;5050249;28;20189;-75
2021/09/23 03:05:11;;;;;;;11.90;7.60;;;10.00;96.90;;;;;;5049920;28;20471;-76
2021/09/23 03:07:36;;;;;;;13.30;8.10;;;10.00;97.00;;;;;;5052179;28;20448;-76
2021/09/23 03:10:05;;;;;;;12.30;7.33;;;10.10;96.50;;;;;;5052491;28;20239;-78
2021/09/23 03:12:31;;;;;;;18.00;8.00;;;10.00;96.20;;;;;;5050925;28;20231;-74
2021/09/23 03:14:56;;;;;;;14.10;7.30;;;10.00;96.00;;;;;;5053393;28;20486;-74
2021/09/23 03:17:22;;;;;;;16.67;8.63;;;10.00;95.60;;;;;;5041886;28;20439;-76
2021/09/23 03:19:48;;;;;;;14.00;7.80;;;10.00;95.60;;;;;;5056607;28;20187;-74
2021/09/23 03:22:17;;;;;;;12.20;7.70;;;9.90;95.80;;;;;;5058393;28;20427;-74
2021/09/23 03:24:43;;;;;;;13.13;7.93;;;9.90;96.10;;;;;;5058356;28;20205;-73
2021/09/23 03:27:10;;;;;;;16.40;7.50;;;9.90;96.10;;;;;;5043100;28;20456;-75
2021/09/23 03:29:35;;;;;;;12.20;7.40;;;9.80;96.30;;;;;;5055040;28;20432;-78
2021/09/23 03:32:01;;;;;;;12.93;7.13;;;9.90;96.50;;;;;;5041870;28;20958;-79
2021/09/23 03:34:27;;;;;;;14.83;8.23;;;9.90;96.60;;;;;;5036092;28;20177;-79
2021/09/23 03:36:53;;;;;;;15.50;8.37;;;9.80;96.60;;;;;;5034968;28;20259;-79
2021/09/23 03:39:19;;;;;;;18.23;9.40;;;9.80;96.90;;;;;;5029396;28;20281;-80
2021/09/23 03:41:44;;;;;;;13.07;8.23;;;9.80;97.10;;;;;;5033374;28;20189;-79
2021/09/23 03:44:10;;;;;;;15.80;7.80;;;9.90;97.10;;;;;;5035622;28;20486;-79
2021/09/23 03:46:36;;;;;;;13.20;8.90;;;9.90;97.10;;;;;;5035558;28;20224;-78
2021/09/23 03:49:02;;;;;;;15.00;8.37;;;10.00;97.00;;;;;;5039987;28;20193;-78
2021/09/23 03:51:28;;;;;;;16.30;8.47;;;10.00;96.70;;;;;;5046369;28;20201;-77
2021/09/23 03:53:54;;;;;;;15.50;8.77;;;10.00;96.40;;;;;;5041957;28;20416;-76
2021/09/23 03:56:19;;;;;;;16.80;8.03;;;9.90;96.20;;;;;;5034437;28;20743;-78
2021/09/23 03:58:45;;;;;;;12.77;7.87;;;10.00;95.90;;;;;;5034202;28;20662;-78
2021/09/23 04:01:12;;;;;;;15.53;9.07;;;9.90;95.80;;;;;;5034262;28;20223;-80
2021/09/23 04:03:38;;;;;;;15.93;8.83;;;9.80;95.90;;;;;;5033170;28;20188;-78
2021/09/23 04:06:04;;;;;;;14.83;8.07;;;9.80;96.10;;;;;;5032662;28;20472;-76
2021/09/23 04:08:29;;;;;;;12.00;7.47;;;9.80;96.40;;;;;;5032019;28;20579;-80
2021/09/23 04:10:55;;;;;;;16.80;9.40;;;9.80;96.50;;;;;;5033650;28;20448;-77
2021/09/23 04:13:21;;;;;;;18.33;9.10;;;9.70;96.80;;;;;;5032905;28;20189;-73
2021/09/23 04:15:49;;;;;;;14.73;7.27;;;9.70;97.00;;;;;;5033196;28;20197;-77
2021/09/23 04:18:17;;;;;;;14.70;7.33;;;9.60;97.40;;;;;;5025659;28;20456;-78
2021/09/23 04:20:45;;;;;;;16.50;8.07;;;9.70;97.60;;;;;;5031033;28;20440;-75
2021/09/23 04:23:12;;;;;;;20.80;8.57;;;9.70;97.60;;;;;;5030358;28;20436;-77
2021/09/23 04:25:37;;;;;;;15.80;7.90;;;9.70;97.70;;;;;;5030112;28;20467;-77
2021/09/23 04:28:03;;;;;;;19.67;8.10;;;9.70;97.70;;;;;;5033015;28;20471;-73
2021/09/23 04:30:29;;;;;;;17.00;9.50;;;9.80;97.60;;;;;;5027428;28;20181;-77
2021/09/23 04:32:55;;;;;;;24.63;8.83;;;9.70;97.60;;;;;;5033193;28;20453;-76
2021/09/23 04:35:21;;;;;;;14.90;8.70;;;9.80;97.40;;;;;;5025793;28;20194;-73
2021/09/23 04:37:46;;;;;;;17.13;8.87;;;9.60;96.70;;;;;;5031944;28;20828;-78
2021/09/23 04:40:12;;;;;;;15.67;9.03;;;9.60;96.50;;;;;;5023586;28;20682;-77
2021/09/23 04:42:43;;;;;;;15.30;8.50;;;9.50;96.50;;;;;;5033551;28;20197;-78
2021/09/23 04:45:11;;;;;;;17.83;8.27;;;9.50;96.40;;;;;;5030565;28;20558;-78
2021/09/23 04:47:37;;;;;;;15.90;8.80;;;9.40;96.30;;;;;;5034098;28;20793;-77
2021/09/23 04:50:04;;;;;;;14.83;8.43;;;9.40;96.40;;;;;;5032560;28;20982;-80
2021/09/23 04:52:30;;;;;;;13.47;7.67;;;9.30;96.50;;;;;;5030864;28;20427;-76
2021/09/23 04:54:56;;;;;;;14.23;8.60;;;9.40;96.60;;;;;;5022513;28;20432;-76
2021/09/23 04:57:22;;;;;;;15.53;8.60;;;9.40;96.60;;;;;;5031169;28;20217;-76
2021/09/23 04:59:48;;;;;;;17.73;9.03;;;9.50;96.60;;;;;;5027548;28;20436;-75
2021/09/23 05:02:15;;;;;;;14.40;9.03;;;9.50;96.60;;;;;;5032324;28;20181;-78
2021/09/23 05:04:44;;;;;;;14.20;8.43;;;9.50;96.60;;;;;;5032294;28;21047;-77
2021/09/23 05:07:10;;;;;;;16.80;9.10;;;9.50;96.90;;;;;;5029877;28;20534;-76
2021/09/23 05:09:37;;;;;;;17.07;8.27;;;9.50;97.20;;;;;;5028282;28;20938;-76
2021/09/23 05:12:03;;;;;;;15.13;9.63;;;9.60;97.30;;;;;;5029391;28;20416;-79
2021/09/23 05:14:30;;;;;;;16.43;9.63;;;9.70;97.30;;;;;;5033161;28;20946;-77
2021/09/23 05:16:56;;;;;;;18.90;9.20;;;9.70;97.30;;;;;;5032640;28;20475;-77
2021/09/23 05:19:22;;;;;;;19.20;10.87;;;9.70;97.20;;;;;;5035574;28;20485;-77
2021/09/23 05:21:47;;;;;;;23.50;9.70;;;9.70;97.10;;;;;;5034413;28;20428;-76
2021/09/23 05:24:16;;;;;;;22.90;11.00;;;9.60;97.10;;;;;;5033087;28;20462;-76
2021/09/23 05:26:45;;;;;;;20.60;10.57;;;9.60;97.30;;;;;;5032826;28;20205;-76
2021/09/23 05:29:11;;;;;;;21.40;10.70;;;9.60;97.40;;;;;;5032045;28;20427;-75
2021/09/23 05:31:37;;;;;;;20.73;10.40;;;9.60;97.40;;;;;;5029733;28;20431;-76
2021/09/23 05:34:04;;;;;;;24.00;11.23;;;9.70;97.40;;;;;;5031246;28;20196;-76
2021/09/23 05:36:30;;;;;;;25.93;11.67;;;9.70;96.90;;;;;;5059659;28;20220;-75
2021/09/23 05:38:59;;;;;;;22.80;11.23;;;9.80;96.40;;;;;;5027118;28;20506;-77
2021/09/23 05:41:25;;;;;;;20.93;11.37;;;9.80;96.20;;;;;;5030820;28;20780;-77
2021/09/23 05:43:51;;;;;;;23.83;12.50;;;9.70;96.20;;;;;;5031535;28;20420;-74
2021/09/23 05:46:17;;;;;;;20.43;10.40;;;9.70;96.50;;;;;;5027538;28;20424;-77
2021/09/23 05:48:43;;;;;;;23.40;10.90;;;9.70;96.50;;;;;;5031640;28;20208;-77
2021/09/23 05:51:09;;;;;;;18.10;10.40;;;9.80;96.30;;;;;;5037508;28;20186;-77
2021/09/23 05:53:34;;;;;;;19.50;11.30;;;9.70;96.10;;;;;;5035641;28;20177;-76
2021/09/23 05:56:00;;;;;;;22.73;11.60;;;9.80;96.30;;;;;;5033912;28;20213;-76
2021/09/23 05:58:26;;;;;;;24.70;11.17;;;9.80;96.40;;;;;;5029526;28;20201;-75
2021/09/23 06:00:52;;;;;;;18.00;9.93;;;9.80;96.40;;;;;;5029269;28;20612;-78
2021/09/23 06:03:18;;;;;;;19.33;10.50;;;9.80;96.40;;;;;;5029311;28;20442;-77
2021/09/23 06:05:43;;;;;;;25.20;12.00;;;9.90;96.40;;;;;;5028267;28;20840;-76
2021/09/23 06:08:09;;;;;;;17.83;10.37;;;10.00;96.20;;;;;;5030877;28;20277;-76
2021/09/23 06:10:35;;;;;;;18.50;9.50;;;10.00;95.90;;;;;;5030640;28;20798;-77
2021/09/23 06:13:02;;;;;;;23.77;11.50;;;10.00;95.90;;;;;;5031113;28;20243;-76
2021/09/23 06:15:28;;;;;;;22.53;10.87;;;10.00;95.70;;;;;;5030603;28;20220;-77
2021/09/23 06:17:53;;;;;;;19.50;10.07;;;10.10;95.70;;;;;;5031800;28;20459;-76
2021/09/23 06:20:20;;;;;;;19.00;10.30;;;10.20;95.70;;;;;;5032749;28;20455;-76
2021/09/23 06:22:46;;;;;;;19.07;10.67;;;10.30;95.60;;;;;;5036500;28;20311;-78
2021/09/23 06:25:12;;;;;;;25.07;12.53;;;10.30;95.40;;;;;;5036517;28;20521;-76
2021/09/23 06:27:38;;;;;;;19.90;10.57;;;10.30;95.20;;;;;;5037734;28;20987;-75
2021/09/23 06:30:05;;;;;;;21.13;10.33;;;10.30;95.20;;;;;;5040439;28;20504;-76
2021/09/23 06:32:31;;;;;;;20.30;10.00;;;10.40;95.10;;;;;;5025147;28;20264;-76
2021/09/23 06:34:56;;;;;;;24.73;10.27;;;10.50;94.90;;;;;;5034438;28;20966;-77
2021/09/23 06:37:22;;;;;;;26.87;11.10;;;10.50;94.90;;;;;;5032686;28;20221;-78
2021/09/23 06:39:48;;;;;;;18.60;10.43;;;10.50;94.90;;;;;;5034145;28;20618;-77
2021/09/23 06:42:16;;;;;;;24.03;11.47;;;10.60;95.00;;;;;;5037067;28;20207;-76
2021/09/23 06:44:43;;;;;;;23.97;11.40;;;10.70;94.80;;;;;;5032568;28;20286;-75
2021/09/23 06:47:09;;;;;;;19.53;10.43;;;10.70;94.70;;;;;;5033528;28;20527;-76
2021/09/23 06:49:36;;;;;;;22.50;11.57;;;10.80;94.60;;;;;;5030164;28;20443;-73
2021/09/23 06:52:02;;;;;;;20.20;10.37;;;10.80;94.50;;;;;;5029612;28;20423;-75
2021/09/23 06:54:28;;;;;;;23.90;11.13;;;10.90;94.40;;;;;;5029011;28;20197;-76
2021/09/23 06:56:54;;;;;;;22.47;11.60;;;11.00;94.30;;;;;;5041032;28;20489;-76
2021/09/23 06:59:19;;;;;;;27.83;11.97;;;11.00;94.20;;;;;;5031643;28;20181;-76
2021/09/23 07:01:45;;;;;;;24.90;11.33;;;11.00;94.20;;;;;;5029944;28;20283;-76
2021/09/23 07:04:11;;;;;;;19.40;10.77;;;11.10;94.10;;;;;;5031699;28;20822;-74
2021/09/23 07:06:39;;;;;;;22.17;12.33;;;11.10;93.90;;;;;;5033741;28;20201;-75
2021/09/23 07:09:05;;;;;;;24.90;11.30;;;11.10;94.10;;;;;;5034293;28;20177;-76
2021/09/23 07:11:31;;;;;;;23.47;11.90;;;11.20;94.10;;;;;;5025557;28;20424;-76
2021/09/23 07:13:57;;;;;;;24.83;11.90;;;11.30;94.00;;;;;;5032721;28;20291;-76
2021/09/23 07:16:22;;;;;;;23.00;12.10;;;11.30;93.70;;;;;;5032921;28;20227;-75
2021/09/23 07:18:48;;;;;;;25.33;13.67;;;11.30;93.90;;;;;;5033769;28;20631;-75
2021/09/23 07:21:14;;;;;;;26.30;13.60;;;11.40;93.90;;;;;;5033377;28;20182;-78
2021/09/23 07:23:39;;;;;;;24.37;14.00;;;11.50;93.50;;;;;;5032401;28;20177;-75
2021/09/23 07:26:05;;;;;;;26.10;13.50;;;11.50;92.90;;;;;;5032529;28;20292;-75
2021/09/23 07:28:31;;;;;;;20.83;12.30;;;11.60;92.40;;;;;;5033045;28;20201;-76
2021/09/23 07:30:57;;;;;;;25.50;13.80;;;11.70;92.00;;;;;;5033000;28;20203;-76
2021/09/23 07:33:22;;;;;;;29.43;14.23;;;11.80;91.60;;;;;;5031544;28;20212;-77
2021/09/23 07:35:55;;;;;;;22.50;10.70;;;11.80;91.60;;;;;;5033275;28;20185;-78
2021/09/23 07:38:21;;;;;;;28.97;14.13;;;11.90;91.90;;;;;;5033279;28;20205;-75
2021/09/23 07:40:48;;;;;;;28.73;15.47;;;11.90;91.60;;;;;;5033623;28;20511;-77
2021/09/23 07:43:13;;;;;;;20.87;11.93;;;12.00;91.70;;;;;;5020065;28;20220;-75
2021/09/23 07:45:39;;;;;;;22.97;11.33;;;12.00;91.60;;;;;;5031808;28;20463;-77
2021/09/23 07:48:05;;;;;;;23.97;13.70;;;12.10;91.40;;;;;;5034236;28;20240;-76
2021/09/23 07:50:31;;;;;;;22.53;12.70;;;12.10;91.00;;;;;;5036794;28;20972;-76
2021/09/23 07:52:57;;;;;;;20.33;11.13;;;12.20;91.00;;;;;;5034543;28;20424;-76
2021/09/23 07:55:23;;;;;;;30.47;13.60;;;12.30;90.80;;;;;;5033559;28;20185;-74
2021/09/23 07:57:49;;;;;;;27.80;12.03;;;12.40;90.80;;;;;;5032971;28;20719;-75
2021/09/23 08:00:15;;;;;;;20.97;10.90;;;12.50;90.60;;;;;;5032496;28;20200;-76
2021/09/23 08:02:41;;;;;;;26.07;11.93;;;12.50;90.70;;;;;;5030131;28;20550;-75
2021/09/23 08:05:07;;;;;;;20.30;10.17;;;12.60;90.60;;;;;;5060250;28;20928;-75
2021/09/23 08:07:33;;;;;;;20.73;10.60;;;12.70;90.20;;;;;;5031345;28;20723;-76
2021/09/23 08:09:58;;;;;;;23.60;10.60;;;12.80;89.60;;;;;;5032386;28;21245;-77
2021/09/23 08:12:24;;;;;;;17.57;10.10;;;13.00;88.90;;;;;;5031716;28;20192;-75
2021/09/23 08:14:50;;;;;;;20.70;10.77;;;13.10;88.40;;;;;;5030294;28;20189;-74
2021/09/23 08:17:16;;;;;;;22.57;12.50;;;13.20;88.40;;;;;;5032566;28;20876;-75
2021/09/23 08:19:41;;;;;;;19.13;9.30;;;13.30;88.00;;;;;;5030090;28;20200;-74
2021/09/23 08:22:07;;;;;;;16.80;9.83;;;13.50;87.60;;;;;;5032798;28;20189;-76
2021/09/23 08:24:35;;;;;;;23.67;10.77;;;13.50;87.10;;;;;;5030220;28;20262;-75
2021/09/23 08:27:02;;;;;;;17.37;9.80;;;13.60;87.10;;;;;;5031663;28;20213;-74
2021/09/23 08:29:27;;;;;;;16.47;9.87;;;13.70;86.30;;;;;;5032719;28;20416;-77
2021/09/23 08:31:54;;;;;;;15.17;8.50;;;13.80;86.00;;;;;;5031276;28;20510;-76
2021/09/23 08:34:19;;;;;;;21.47;9.77;;;13.90;85.90;;;;;;5031492;28;20758;-74
2021/09/23 08:36:45;;;;;;;20.87;10.57;;;14.00;85.00;;;;;;5032385;28;20463;-76
2021/09/23 08:39:12;;;;;;;17.57;9.70;;;14.20;85.00;;;;;;5031351;28;20296;-77
2021/09/23 08:41:38;;;;;;;16.97;9.50;;;14.30;84.60;;;;;;5033586;28;20944;-77
2021/09/23 08:44:04;;;;;;;21.97;8.67;;;14.50;83.60;;;;;;5032121;28;20433;-74
2021/09/23 08:46:34;;;;;;;18.70;9.70;;;14.60;83.00;;;;;;5031597;28;21856;-77
2021/09/23 08:49:05;;;;;;;14.17;8.50;;;14.70;82.80;;;;;;5031675;28;20424;-75
2021/09/23 08:51:31;;;;;;;20.60;9.10;;;14.80;82.20;;;;;;5031585;28;20486;-77
2021/09/23 08:53:57;;;;;;;18.20;9.47;;;14.90;81.50;;;;;;5030622;28;20421;-75
2021/09/23 08:56:23;;;;;;;31.00;9.73;;;14.90;81.50;;;;;;5024539;28;20455;-76
2021/09/23 08:58:49;;;;;;;111.23;19.40;;;15.00;81.20;;;;;;5031457;28;20478;-75
2021/09/23 09:01:18;;;;;;;657.50;81.13;;;15.00;80.90;;;;;;5031532;28;20952;-77
2021/09/23 09:03:45;;;;;;;27.73;10.17;;;15.10;80.20;;;;;;5031013;28;20423;-74
2021/09/23 09:06:13;;;;;;;28.70;9.47;;;15.20;79.90;;;;;;5030121;28;20517;-74
2021/09/23 09:08:41;;;;;;;27.03;8.83;;;15.40;79.30;;;;;;5030950;28;20617;-75
2021/09/23 09:11:12;;;;;;;10.30;6.23;;;15.60;77.60;;;;;;5030269;28;20443;-76
2021/09/23 09:13:43;;;;;;;16.93;8.20;;;15.70;76.40;;;;;;5033507;28;20422;-75
2021/09/23 09:16:24;;;;;;;13.13;7.67;;;15.90;76.10;;;;;;5031672;28;20437;-76
2021/09/23 09:18:56;;;;;;;16.77;7.67;;;16.00;76.10;;;;;;5024153;28;20419;-76
2021/09/23 09:21:24;;;;;;;15.60;8.10;;;16.00;77.00;;;;;;5025721;28;20508;-75
2021/09/23 09:23:55;;;;;;;19.50;8.40;;;16.10;77.30;;;;;;5029093;28;20938;-74
2021/09/23 09:26:22;;;;;;;8.83;4.63;;;16.20;77.10;;;;;;5031270;28;20493;-74
2021/09/23 09:28:51;;;;;;;6.50;3.80;;;16.20;74.30;;;;;;5031722;28;20740;-74
2021/09/23 09:31:17;;;;;;;4.47;3.20;;;16.40;71.00;;;;;;5030058;28;20528;-76
2021/09/23 09:33:47;;;;;;;7.93;3.70;;;16.60;70.20;;;;;;5033326;28;20422;-76
2021/09/23 09:36:49;;;;;;;7.33;3.43;;;16.70;69.90;;;;;;5030451;28;20436;-76
2021/09/23 09:39:18;;;;;;;4.13;3.10;;;16.90;69.50;;;;;;4986516;28;20429;-76
2021/09/23 09:41:51;;;;;;;4.10;3.20;;;17.20;67.60;;;;;;4988653;28;20983;-75
2021/09/23 09:44:17;;;;;;;5.73;3.50;;;17.40;67.30;;;;;;4987280;28;20470;-75
2021/09/23 09:46:53;;;;;;;7.50;3.30;;;17.40;66.90;;;;;;4984582;28;20571;-76
2021/09/23 09:49:21;;;;;;;5.63;3.53;;;17.60;65.80;;;;;;4985635;28;20845;-75
2021/09/23 09:51:48;;;;;;;4.00;3.20;;;17.80;65.60;;;;;;4989525;28;20422;-75
2021/09/23 09:54:16;;;;;;;8.33;3.57;;;17.90;66.10;;;;;;4988892;28;20845;-77
2021/09/23 09:56:44;;;;;;;6.10;2.73;;;17.90;66.40;;;;;;4989463;28;20449;-74
2021/09/23 09:59:19;;;;;;;5.00;3.20;;;18.00;65.30;;;;;;4989187;28;20512;-76
2021/09/23 10:01:50;;;;;;;5.43;3.63;;;18.10;65.60;;;;;;4970069;28;21273;-75
2021/09/23 10:04:18;;;;;;;4.00;2.60;;;18.20;65.30;;;;;;4982614;28;20504;-75
2021/09/23 10:06:44;;;;;;;4.93;3.17;;;18.30;64.80;;;;;;4989556;28;21068;-76
2021/09/23 10:09:12;;;;;;;6.17;3.73;;;18.40;64.70;;;;;;4984171;28;20427;-74
2021/09/23 10:11:44;;;;;;;4.63;3.40;;;18.50;64.20;;;;;;4981689;28;20445;-76
2021/09/23 10:14:12;;;;;;;6.33;3.83;;;18.50;64.80;;;;;;4989337;28;21298;-75
2021/09/23 10:16:38;;;;;;;5.93;3.67;;;18.70;64.70;;;;;;5030001;28;20449;-76
2021/09/23 10:19:06;;;;;;;6.07;3.73;;;18.70;64.70;;;;;;5031571;28;20428;-76
2021/09/23 10:21:32;;;;;;;5.20;2.90;;;18.80;65.00;;;;;;5025898;28;20413;-76
2021/09/23 10:23:58;;;;;;;6.23;3.40;;;18.80;65.30;;;;;;5032879;28;20460;-75
2021/09/23 10:26:29;;;;;;;5.40;3.60;;;18.80;65.10;;;;;;5029597;28;20434;-75
2021/09/23 10:28:57;;;;;;;4.40;3.40;;;19.00;64.40;;;;;;5030491;28;20185;-75
2021/09/23 10:31:36;;;;;;;4.80;3.73;;;19.00;64.10;;;;;;5031181;28;20536;-76
2021/09/23 10:34:04;;;;;;;4.93;3.13;;;19.30;63.70;;;;;;5029766;28;20436;-75
2021/09/23 10:36:32;;;;;;;8.70;3.77;;;19.60;62.50;;;;;;5030231;28;20451;-76
2021/09/23 10:39:00;;;;;;;5.03;2.73;;;20.10;59.70;;;;;;5033200;28;20515;-75
2021/09/23 10:41:27;;;;;;;5.10;2.87;;;20.70;59.50;;;;;;5033636;28;20430;-74
2021/09/23 10:43:55;;;;;;;6.50;3.30;;;21.20;56.50;;;;;;5027844;28;20502;-75
2021/09/23 10:46:24;;;;;;;5.30;3.00;;;21.40;55.60;;;;;;5031972;28;20528;-72
2021/09/23 10:48:52;;;;;;;5.30;2.97;;;21.70;55.70;;;;;;5029430;28;20913;-76
2021/09/23 10:51:18;;;;;;;4.47;2.90;;;21.90;55.00;;;;;;5034527;28;20419;-76
2021/09/23 10:53:49;;;;;;;4.83;3.23;;;22.40;54.00;;;;;;5033321;28;20427;-74
2021/09/23 10:56:19;;;;;;;2.70;2.57;;;22.80;52.20;;;;;;5034874;28;20192;-77
2021/09/23 10:58:47;;;;;;;5.33;3.57;;;22.90;51.40;;;;;;5034819;28;20463;-74
2021/09/23 11:01:30;;;;;;;3.73;2.70;;;23.20;51.30;;;;;;5033094;28;20431;-76
2021/09/23 11:03:59;;;;;;;3.73;2.60;;;23.20;50.70;;;;;;5028428;28;20579;-75
2021/09/23 11:06:36;;;;;;;3.30;2.50;;;23.40;50.60;;;;;;5032124;28;20505;-77
2021/09/23 11:09:22;;;;;;;5.90;3.07;;;23.70;49.30;;;;;;5033792;28;20414;-77
2021/09/23 11:11:49;;;;;;;5.20;2.80;;;23.80;48.60;;;;;;5028862;28;20504;-77
2021/09/23 11:14:17;;;;;;;4.40;2.70;;;24.10;47.10;;;;;;5033694;28;20419;-74
2021/09/23 11:16:48;;;;;;;5.93;2.53;;;23.90;47.50;;;;;;5038991;28;20466;-75
2021/09/23 11:19:19;;;;;;;9.27;2.97;;;24.10;47.70;;;;;;5037460;28;20465;-76
2021/09/23 11:21:50;;;;;;;6.20;3.43;;;24.60;46.60;;;;;;5033230;28;20420;-75
2021/09/23 11:24:16;;;;;;;4.33;2.90;;;24.80;46.10;;;;;;5031853;28;20915;-76
2021/09/23 11:26:43;;;;;;;4.67;2.80;;;24.60;46.50;;;;;;5033579;28;20452;-75
2021/09/23 11:29:11;;;;;;;4.43;2.70;;;24.30;46.60;;;;;;5033426;28;20185;-76
2021/09/23 11:31:56;;;;;;;8.60;5.10;;;24.50;46.90;;;;;;5032803;28;20420;-77
2021/09/23 11:34:37;;;;;;;3.83;2.87;;;25.00;46.70;;;;;;5029628;28;20434;-76
2021/09/23 11:37:05;;;;;;;9.67;3.57;;;25.50;44.20;;;;;;5032677;28;21089;-75
2021/09/23 11:39:31;;;;;;;9.37;3.60;;;25.60;43.50;;;;;;5031818;28;20442;-75
2021/09/23 11:42:12;;;;;;;6.20;2.83;;;25.30;43.00;;;;;;5032754;28;20423;-75
2021/09/23 11:44:39;;;;;;;7.30;2.70;;;25.30;42.20;;;;;;5031824;28;20576;-76
2021/09/23 11:47:10;;;;;;;3.30;2.33;;;25.40;42.00;;;;;;5029348;28;20438;-75
2021/09/23 11:49:35;;;;;;;3.33;2.20;;;25.50;40.80;;;;;;5031057;28;20421;-75
2021/09/23 11:52:01;;;;;;;4.13;2.77;;;25.60;40.30;;;;;;5032013;28;20428;-74
2021/09/23 11:54:27;;;;;;;5.93;2.77;;;25.30;40.80;;;;;;5031061;28;20784;-75
2021/09/23 11:56:53;;;;;;;3.43;2.57;;;25.00;41.50;;;;;;5032019;28;20264;-75
2021/09/23 11:59:24;;;;;;;4.13;2.63;;;25.10;41.60;;;;;;5031849;28;20190;-76
2021/09/23 12:02:06;;;;;;;29.67;5.00;;;24.80;42.40;;;;;;5030410;28;20228;-73
2021/09/23 12:04:33;;;;;;;5.27;2.73;;;24.90;42.30;;;;;;5030705;28;20470;-75
2021/09/23 12:07:03;;;;;;;3.50;2.57;;;24.90;42.00;;;;;;5031538;28;20451;-75
2021/09/23 12:09:29;;;;;;;4.43;2.70;;;24.80;42.40;;;;;;5027133;28;20527;-77
2021/09/23 12:11:55;;;;;;;4.83;3.00;;;25.10;42.40;;;;;;5027093;28;20513;-75
2021/09/23 12:14:21;;;;;;;4.17;2.70;;;25.40;41.50;;;;;;5029947;28;20634;-74
2021/09/23 12:16:48;;;;;;;3.93;2.40;;;25.70;41.40;;;;;;5032740;28;20702;-75
2021/09/23 12:19:17;;;;;;;4.70;2.80;;;25.90;39.90;;;;;;5025079;28;20661;-76
2021/09/23 12:21:54;;;;;;;4.60;2.80;;;25.80;39.90;;;;;;5031641;28;20425;-73
2021/09/23 12:24:31;;;;;;;2.97;2.70;;;25.70;40.20;;;;;;5029560;28;20421;-76
2021/09/23 12:26:58;;;;;;;4.63;3.00;;;25.90;39.60;;;;;;5030272;28;20493;-76
2021/09/23 12:29:24;;;;;;;4.30;2.67;;;26.10;39.20;;;;;;5033266;28;20485;-77
2021/09/23 12:32:05;;;;;;;4.80;3.10;;;26.30;38.00;;;;;;5031968;28;20419;-76
2021/09/23 12:34:37;;;;;;;4.57;3.03;;;26.20;36.40;;;;;;5022534;28;20419;-76
2021/09/23 12:37:06;;;;;;;4.00;2.80;;;25.90;37.90;;;;;;5031292;28;21101;-71
2021/09/23 12:39:39;;;;;;;4.67;2.90;;;25.70;38.60;;;;;;5031345;28;20429;-77